Check out our new PWSWeather beta!
PWSweather.com
Personal Weather Stations
Station Observations
GRD01
Warsaw, LesznoPL 05-084

WarsawLesznoPL 05-084

Lat: 52.257404, Lon: 20.564847

Elevation: 298

Station Type: WH3080

http://pogoda.kampinos.waw.pl

High Low Average
Temperature 86.5°F30.3°C 60.8°F16.0°C 73.1°F22.8°C
Dew Point 64.9°F18.3°C 52.6°F11.4°C 58.7°F14.8°C
Winds 11.4 mph 18.3 kmh 0.7 mph 1.1 kmh 4.0 mph SSW6.4 kmh SSW
Wind Gusts 15.9 mph25.6 kmh 2.2 mph3.5 kmh 7.0 mph11.3 kmh
Humidity 82% 41% 62%
Pressure 30.45 in1031.2 mb 30.34 in1027.4 mb -
Precipitation 0.00 in0.0 mm - -
Hour Temp Dew Point Humidity Winds Wind Gusts Pressure Precip Precip Rate Daily Precip Total
12:00 AM 63.7°F17.6°C 52.9°F11.6°C 68% 0.7 mph SE1.1 kmh SE 2.2 mph3.5 kmh 30.43 in1030.5 mb 0.00 in0.0 mm 0.00 in0.0 mm 0.00 in0.0 mm
12:05 AM 63.7°F17.6°C 52.9°F11.6°C 68% 1.6 mph SE2.6 kmh SE 2.2 mph3.5 kmh 30.00 in1015.9 mb 0.00 in0.0 mm 0.00 in0.0 mm 0.00 in0.0 mm
12:15 AM 63.3°F17.4°C 53.8°F12.1°C 71% 0.7 mph SE1.1 kmh SE 2.2 mph3.5 kmh 30.44 in1030.8 mb 0.00 in0.0 mm 0.00 in0.0 mm 0.00 in0.0 mm
12:30 AM 63.0°F17.2°C 53.4°F11.9°C 71% 2.2 mph SE3.5 kmh SE 3.1 mph5.0 kmh 30.44 in1030.8 mb 0.00 in0.0 mm 0.00 in0.0 mm 0.00 in0.0 mm
12:35 AM 63.0°F17.2°C 53.4°F11.9°C 71% 2.2 mph SE3.5 kmh SE 3.1 mph5.0 kmh 30.00 in1015.9 mb 0.00 in0.0 mm 0.00 in0.0 mm 0.00 in0.0 mm
12:45 AM 62.6°F17.0°C 53.4°F11.9°C 72% 1.6 mph SE2.6 kmh SE 2.2 mph3.5 kmh 30.44 in1030.8 mb 0.00 in0.0 mm 0.00 in0.0 mm 0.00 in0.0 mm
01:00 AM 62.2°F16.8°C 53.1°F11.7°C 72% 1.6 mph SE2.6 kmh SE 3.8 mph6.1 kmh 30.45 in1031.2 mb 0.00 in0.0 mm 0.00 in0.0 mm 0.00 in0.0 mm
01:05 AM 62.2°F16.8°C 53.1°F11.7°C 72% 1.6 mph SE2.6 kmh SE 3.1 mph5.0 kmh 30.00 in1015.9 mb 0.00 in0.0 mm 0.00 in0.0 mm 0.00 in0.0 mm
01:15 AM 61.7°F16.5°C 53.0°F11.7°C 73% 1.6 mph SE2.6 kmh SE 3.1 mph5.0 kmh 30.45 in1031.2 mb 0.00 in0.0 mm 0.00 in0.0 mm 0.00 in0.0 mm
01:30 AM 61.5°F16.4°C 53.2°F11.8°C 74% 0.7 mph SE1.1 kmh SE 2.2 mph3.5 kmh 30.44 in1030.8 mb 0.00 in0.0 mm 0.00 in0.0 mm 0.00 in0.0 mm
01:35 AM 61.5°F16.4°C 52.8°F11.6°C 73% 0.7 mph SE1.1 kmh SE 1.6 mph2.6 kmh 30.00 in1015.9 mb 0.00 in0.0 mm 0.00 in0.0 mm 0.00 in0.0 mm
01:45 AM 61.2°F16.2°C 52.8°F11.6°C 74% 2.2 mph SE3.5 kmh SE 3.8 mph6.1 kmh 30.44 in1030.8 mb 0.00 in0.0 mm 0.00 in0.0 mm 0.00 in0.0 mm
02:00 AM 61.0°F16.1°C 53.0°F11.7°C 75% 2.2 mph SE3.5 kmh SE 3.8 mph6.1 kmh 30.43 in1030.5 mb 0.00 in0.0 mm 0.00 in0.0 mm 0.00 in0.0 mm
02:05 AM 61.0°F16.1°C 53.0°F11.7°C 75% 2.2 mph SE3.5 kmh SE 3.1 mph5.0 kmh 30.00 in1015.9 mb 0.00 in0.0 mm 0.00 in0.0 mm 0.00 in0.0 mm
02:15 AM 61.2°F16.2°C 52.8°F11.6°C 74% 1.6 mph SE2.6 kmh SE 3.8 mph6.1 kmh 30.43 in1030.5 mb 0.00 in0.0 mm 0.00 in0.0 mm 0.00 in0.0 mm
02:30 AM 61.2°F16.2°C 52.8°F11.6°C 74% 2.2 mph E3.5 kmh E 3.1 mph5.0 kmh 30.43 in1030.5 mb 0.00 in0.0 mm 0.00 in0.0 mm 0.00 in0.0 mm
02:35 AM 61.2°F16.2°C 52.8°F11.6°C 74% 2.2 mph E3.5 kmh E 3.1 mph5.0 kmh 29.98 in1015.2 mb 0.00 in0.0 mm 0.00 in0.0 mm 0.00 in0.0 mm
02:45 AM 61.3°F16.3°C 53.0°F11.7°C 74% 3.1 mph E5.0 kmh E 3.8 mph6.1 kmh 30.43 in1030.5 mb 0.00 in0.0 mm 0.00 in0.0 mm 0.00 in0.0 mm
03:00 AM 61.3°F16.3°C 53.0°F11.7°C 74% 0.7 mph SE1.1 kmh SE 3.1 mph5.0 kmh 30.44 in1030.8 mb 0.00 in0.0 mm 0.00 in0.0 mm 0.00 in0.0 mm
03:05 AM 61.5°F16.4°C 53.2°F11.8°C 74% 0.7 mph E1.1 kmh E 1.6 mph2.6 kmh 29.99 in1015.6 mb 0.00 in0.0 mm 0.00 in0.0 mm 0.00 in0.0 mm
03:15 AM 61.0°F16.1°C 52.6°F11.4°C 74% 0.7 mph SE1.1 kmh SE 3.8 mph6.1 kmh 30.44 in1030.8 mb 0.00 in0.0 mm 0.00 in0.0 mm 0.00 in0.0 mm
03:30 AM 60.8°F16.0°C 52.8°F11.6°C 75% 2.2 mph ESE3.5 kmh ESE 3.1 mph5.0 kmh 30.43 in1030.5 mb 0.00 in0.0 mm 0.00 in0.0 mm 0.00 in0.0 mm
03:35 AM 60.8°F16.0°C 52.8°F11.6°C 75% 1.6 mph SE2.6 kmh SE 2.2 mph3.5 kmh 29.99 in1015.6 mb 0.00 in0.0 mm 0.00 in0.0 mm 0.00 in0.0 mm
03:45 AM 61.0°F16.1°C 53.0°F11.7°C 75% 3.1 mph ESE5.0 kmh ESE 5.4 mph8.7 kmh 30.43 in1030.5 mb 0.00 in0.0 mm 0.00 in0.0 mm 0.00 in0.0 mm
04:00 AM 61.2°F16.2°C 53.2°F11.8°C 75% 2.2 mph E3.5 kmh E 3.1 mph5.0 kmh 30.43 in1030.5 mb 0.00 in0.0 mm 0.00 in0.0 mm 0.00 in0.0 mm
04:05 AM 61.2°F16.2°C 53.2°F11.8°C 75% 1.6 mph E2.6 kmh E 2.2 mph3.5 kmh 29.99 in1015.6 mb 0.00 in0.0 mm 0.00 in0.0 mm 0.00 in0.0 mm
04:15 AM 61.3°F16.3°C 53.3°F11.8°C 75% 3.1 mph E5.0 kmh E 4.5 mph7.2 kmh 30.42 in1030.1 mb 0.00 in0.0 mm 0.00 in0.0 mm 0.00 in0.0 mm
04:30 AM 61.5°F16.4°C 53.5°F11.9°C 75% 2.2 mph E3.5 kmh E 3.8 mph6.1 kmh 30.43 in1030.5 mb 0.00 in0.0 mm 0.00 in0.0 mm 0.00 in0.0 mm
04:35 AM 61.5°F16.4°C 53.5°F11.9°C 75% 2.2 mph E3.5 kmh E 3.1 mph5.0 kmh 29.98 in1015.2 mb 0.00 in0.0 mm 0.00 in0.0 mm 0.00 in0.0 mm
04:45 AM 61.9°F16.6°C 53.9°F12.2°C 75% 2.2 mph E3.5 kmh E 3.8 mph6.1 kmh 30.42 in1030.1 mb 0.00 in0.0 mm 0.00 in0.0 mm 0.00 in0.0 mm
05:00 AM 62.2°F16.8°C 54.2°F12.3°C 75% 1.6 mph ESE2.6 kmh ESE 4.5 mph7.2 kmh 30.42 in1030.1 mb 0.00 in0.0 mm 0.00 in0.0 mm 0.00 in0.0 mm
05:05 AM 62.2°F16.8°C 54.2°F12.3°C 75% 3.1 mph E5.0 kmh E 3.8 mph6.1 kmh 29.98 in1015.2 mb 0.00 in0.0 mm 0.00 in0.0 mm 0.00 in0.0 mm
05:15 AM 62.6°F17.0°C 54.2°F12.3°C 74% 2.2 mph E3.5 kmh E 4.5 mph7.2 kmh 30.43 in1030.5 mb 0.00 in0.0 mm 0.00 in0.0 mm 0.00 in0.0 mm
05:30 AM 63.1°F17.3°C 54.7°F12.6°C 74% 3.8 mph ESE6.1 kmh ESE 6.0 mph9.7 kmh 30.43 in1030.5 mb 0.00 in0.0 mm 0.00 in0.0 mm 0.00 in0.0 mm
05:35 AM 63.0°F17.2°C 54.5°F12.5°C 74% 3.8 mph SE6.1 kmh SE 5.4 mph8.7 kmh 29.98 in1015.2 mb 0.00 in0.0 mm 0.00 in0.0 mm 0.00 in0.0 mm
05:45 AM 64.4°F18.0°C 54.8°F12.7°C 71% 4.5 mph E7.2 kmh E 5.4 mph8.7 kmh 30.42 in1030.1 mb 0.00 in0.0 mm 0.00 in0.0 mm 0.00 in0.0 mm
06:00 AM 64.9°F18.3°C 54.9°F12.7°C 70% 1.6 mph SE2.6 kmh SE 6.9 mph11.1 kmh 30.42 in1030.1 mb 0.00 in0.0 mm 0.00 in0.0 mm 0.00 in0.0 mm
06:05 AM 64.9°F18.3°C 54.9°F12.7°C 70% 3.1 mph SE5.0 kmh SE 4.5 mph7.2 kmh 29.97 in1014.9 mb 0.00 in0.0 mm 0.00 in0.0 mm 0.00 in0.0 mm
06:15 AM 65.5°F18.6°C 55.8°F13.2°C 71% 3.1 mph ESE5.0 kmh ESE 6.0 mph9.7 kmh 30.42 in1030.1 mb 0.00 in0.0 mm 0.00 in0.0 mm 0.00 in0.0 mm
06:30 AM 65.8°F18.8°C 56.2°F13.4°C 71% 2.2 mph ESE3.5 kmh ESE 6.9 mph11.1 kmh 30.41 in1029.8 mb 0.00 in0.0 mm 0.00 in0.0 mm 0.00 in0.0 mm
06:35 AM 65.7°F18.7°C 56.0°F13.3°C 71% 3.8 mph SE6.1 kmh SE 4.5 mph7.2 kmh 29.96 in1014.6 mb 0.00 in0.0 mm 0.00 in0.0 mm 0.00 in0.0 mm
06:45 AM 66.4°F19.1°C 56.7°F13.7°C 71% 1.6 mph E2.6 kmh E 5.4 mph8.7 kmh 30.40 in1029.5 mb 0.00 in0.0 mm 0.00 in0.0 mm 0.00 in0.0 mm
07:00 AM 66.7°F19.3°C 57.0°F13.9°C 71% 3.8 mph E6.1 kmh E 6.0 mph9.7 kmh 30.39 in1029.1 mb 0.00 in0.0 mm 0.00 in0.0 mm 0.00 in0.0 mm
07:05 AM 66.7°F19.3°C 57.0°F13.9°C 71% 3.8 mph E6.1 kmh E 5.4 mph8.7 kmh 29.95 in1014.2 mb 0.00 in0.0 mm 0.00 in0.0 mm 0.00 in0.0 mm
07:15 AM 68.5°F20.3°C 58.4°F14.7°C 70% 6.9 mph ESE11.1 kmh ESE 9.2 mph14.8 kmh 30.40 in1029.5 mb 0.00 in0.0 mm 0.00 in0.0 mm 0.00 in0.0 mm
07:30 AM 70.0°F21.1°C 58.5°F14.7°C 67% 6.0 mph SE9.7 kmh SE 8.3 mph13.4 kmh 30.40 in1029.5 mb 0.00 in0.0 mm 0.00 in0.0 mm 0.00 in0.0 mm
07:35 AM 69.8°F21.0°C 58.3°F14.6°C 67% 2.2 mph SE3.5 kmh SE 3.1 mph5.0 kmh 29.96 in1014.6 mb 0.00 in0.0 mm 0.00 in0.0 mm 0.00 in0.0 mm
07:45 AM 70.3°F21.3°C 58.4°F14.7°C 66% 3.1 mph SE5.0 kmh SE 6.0 mph9.7 kmh 30.40 in1029.5 mb 0.00 in0.0 mm 0.00 in0.0 mm 0.00 in0.0 mm
08:00 AM 71.1°F21.7°C 59.1°F15.1°C 66% 1.6 mph ESE2.6 kmh ESE 4.5 mph7.2 kmh 30.41 in1029.8 mb 0.00 in0.0 mm 0.00 in0.0 mm 0.00 in0.0 mm
08:05 AM 70.9°F21.6°C 59.0°F15.0°C 66% 2.2 mph E3.5 kmh E 3.8 mph6.1 kmh 29.96 in1014.6 mb 0.00 in0.0 mm 0.00 in0.0 mm 0.00 in0.0 mm
08:15 AM 72.1°F22.3°C 60.2°F15.7°C 66% 0.7 mph SE1.1 kmh SE 7.6 mph12.2 kmh 30.40 in1029.5 mb 0.00 in0.0 mm 0.00 in0.0 mm 0.00 in0.0 mm
08:30 AM 74.5°F23.6°C 58.7°F14.8°C 58% 8.3 mph SE13.4 kmh SE 12.1 mph19.5 kmh 30.40 in1029.5 mb 0.00 in0.0 mm 0.00 in0.0 mm 0.00 in0.0 mm
08:35 AM 73.9°F23.3°C 58.7°F14.8°C 59% 8.3 mph SE13.4 kmh SE 12.1 mph19.5 kmh 29.95 in1014.2 mb 0.00 in0.0 mm 0.00 in0.0 mm 0.00 in0.0 mm
08:45 AM 75.9°F24.4°C 58.6°F14.8°C 55% 3.1 mph SSE5.0 kmh SSE 9.8 mph15.8 kmh 30.39 in1029.1 mb 0.00 in0.0 mm 0.00 in0.0 mm 0.00 in0.0 mm
09:00 AM 76.6°F24.8°C 59.3°F15.2°C 55% 4.5 mph SE7.2 kmh SE 7.6 mph12.2 kmh 30.39 in1029.1 mb 0.00 in0.0 mm 0.00 in0.0 mm 0.00 in0.0 mm
09:05 AM 76.5°F24.7°C 59.1°F15.1°C 55% 4.5 mph E7.2 kmh E 6.0 mph9.7 kmh 29.96 in1014.6 mb 0.00 in0.0 mm 0.00 in0.0 mm 0.00 in0.0 mm
09:15 AM 78.4°F25.8°C 60.4°F15.8°C 54% 8.3 mph SE13.4 kmh SE 11.4 mph18.3 kmh 30.39 in1029.1 mb 0.00 in0.0 mm 0.00 in0.0 mm 0.00 in0.0 mm
09:30 AM 78.8°F26.0°C 60.2°F15.7°C 53% 1.6 mph SSE2.6 kmh SSE 12.1 mph19.5 kmh 30.39 in1029.1 mb 0.00 in0.0 mm 0.00 in0.0 mm 0.00 in0.0 mm
09:35 AM 78.6°F25.9°C 60.1°F15.6°C 53% 4.5 mph S7.2 kmh S 6.0 mph9.7 kmh 29.95 in1014.2 mb 0.00 in0.0 mm 0.00 in0.0 mm 0.00 in0.0 mm
09:45 AM 79.9°F26.6°C 60.7°F15.9°C 52% 11.4 mph SE18.3 kmh SE 14.5 mph23.3 kmh 30.38 in1028.8 mb 0.00 in0.0 mm 0.00 in0.0 mm 0.00 in0.0 mm
10:00 AM 79.5°F26.4°C 60.4°F15.8°C 52% 8.3 mph SSE13.4 kmh SSE 9.8 mph15.8 kmh 30.38 in1028.8 mb 0.00 in0.0 mm 0.00 in0.0 mm 0.00 in0.0 mm
10:05 AM 79.5°F26.4°C 60.4°F15.8°C 52% 5.4 mph SE8.7 kmh SE 8.3 mph13.4 kmh 29.94 in1013.9 mb 0.00 in0.0 mm 0.00 in0.0 mm 0.00 in0.0 mm
10:15 AM 79.7°F26.5°C 61.1°F16.2°C 53% 1.6 mph ESE2.6 kmh ESE 9.8 mph15.8 kmh 30.38 in1028.8 mb 0.00 in0.0 mm 0.00 in0.0 mm 0.00 in0.0 mm
10:30 AM 81.3°F27.4°C 61.5°F16.4°C 51% 9.2 mph SSE14.8 kmh SSE 12.1 mph19.5 kmh 30.38 in1028.8 mb 0.00 in0.0 mm 0.00 in0.0 mm 0.00 in0.0 mm
10:35 AM 81.3°F27.4°C 62.0°F16.7°C 52% 8.3 mph SE13.4 kmh SE 9.8 mph15.8 kmh 29.94 in1013.9 mb 0.00 in0.0 mm 0.00 in0.0 mm 0.00 in0.0 mm
10:45 AM 81.5°F27.5°C 59.9°F15.5°C 48% 4.5 mph SE7.2 kmh SE 7.6 mph12.2 kmh 30.38 in1028.8 mb 0.00 in0.0 mm 0.00 in0.0 mm 0.00 in0.0 mm
11:00 AM 81.7°F27.6°C 60.1°F15.6°C 48% 4.5 mph SE7.2 kmh SE 9.2 mph14.8 kmh 30.38 in1028.8 mb 0.00 in0.0 mm 0.00 in0.0 mm 0.00 in0.0 mm
11:05 AM 81.7°F27.6°C 60.7°F15.9°C 49% 2.2 mph NE3.5 kmh NE 3.8 mph6.1 kmh 29.94 in1013.9 mb 0.00 in0.0 mm 0.00 in0.0 mm 0.00 in0.0 mm
11:15 AM 82.2°F27.9°C 61.2°F16.2°C 49% 2.2 mph SSE3.5 kmh SSE 9.2 mph14.8 kmh 30.38 in1028.8 mb 0.00 in0.0 mm 0.00 in0.0 mm 0.00 in0.0 mm
11:30 AM 83.5°F28.6°C 61.7°F16.5°C 48% 4.5 mph S7.2 kmh S 6.9 mph11.1 kmh 30.38 in1028.8 mb 0.00 in0.0 mm 0.00 in0.0 mm 0.00 in0.0 mm
11:35 AM 83.3°F28.5°C 61.6°F16.4°C 48% 1.6 mph SE2.6 kmh SE 2.2 mph3.5 kmh 29.94 in1013.9 mb 0.00 in0.0 mm 0.00 in0.0 mm 0.00 in0.0 mm
11:45 AM 83.8°F28.8°C 62.6°F17.0°C 49% 5.4 mph S8.7 kmh S 6.9 mph11.1 kmh 30.38 in1028.8 mb 0.00 in0.0 mm 0.00 in0.0 mm 0.00 in0.0 mm
12:00 PM 84.4°F29.1°C 62.5°F16.9°C 48% 4.5 mph S7.2 kmh S 6.9 mph11.1 kmh 30.37 in1028.4 mb 0.00 in0.0 mm 0.00 in0.0 mm 0.00 in0.0 mm
12:05 PM 84.4°F29.1°C 62.5°F16.9°C 48% 5.4 mph SW8.7 kmh SW 6.9 mph11.1 kmh 29.93 in1013.5 mb 0.00 in0.0 mm 0.00 in0.0 mm 0.00 in0.0 mm
12:15 PM 84.0°F28.9°C 61.0°F16.1°C 46% 1.6 mph S2.6 kmh S 7.6 mph12.2 kmh 30.37 in1028.4 mb 0.00 in0.0 mm 0.00 in0.0 mm 0.00 in0.0 mm
12:30 PM 83.8°F28.8°C 62.1°F16.7°C 48% 3.1 mph S5.0 kmh S 6.0 mph9.7 kmh 30.37 in1028.4 mb 0.00 in0.0 mm 0.00 in0.0 mm 0.00 in0.0 mm
12:35 PM 83.8°F28.8°C 61.5°F16.4°C 47% 1.6 mph SW2.6 kmh SW 3.1 mph5.0 kmh 29.92 in1013.2 mb 0.00 in0.0 mm 0.00 in0.0 mm 0.00 in0.0 mm
12:45 PM 84.9°F29.4°C 62.4°F16.9°C 47% 3.8 mph SSW6.1 kmh SSW 8.3 mph13.4 kmh 30.36 in1028.1 mb 0.00 in0.0 mm 0.00 in0.0 mm 0.00 in0.0 mm
01:00 PM 85.3°F29.6°C 62.8°F17.1°C 47% 0.7 mph SSW1.1 kmh SSW 4.5 mph7.2 kmh 30.35 in1027.8 mb 0.00 in0.0 mm 0.00 in0.0 mm 0.00 in0.0 mm
01:05 PM 85.3°F29.6°C 62.8°F17.1°C 47% 0.7 mph SW1.1 kmh SW 1.6 mph2.6 kmh 29.91 in1012.9 mb 0.00 in0.0 mm 0.00 in0.0 mm 0.00 in0.0 mm
01:15 PM 85.6°F29.8°C 61.9°F16.6°C 45% 1.6 mph SE2.6 kmh SE 5.4 mph8.7 kmh 30.35 in1027.8 mb 0.00 in0.0 mm 0.00 in0.0 mm 0.00 in0.0 mm
01:30 PM 85.6°F29.8°C 59.9°F15.5°C 42% 0.7 mph S1.1 kmh S 10.7 mph17.2 kmh 30.34 in1027.4 mb 0.00 in0.0 mm 0.00 in0.0 mm 0.00 in0.0 mm
01:35 PM 85.5°F29.7°C 59.8°F15.4°C 42% 4.5 mph S7.2 kmh S 6.9 mph11.1 kmh 29.90 in1012.5 mb 0.00 in0.0 mm 0.00 in0.0 mm 0.00 in0.0 mm
01:45 PM 86.5°F30.3°C 60.0°F15.6°C 41% 2.2 mph SSW3.5 kmh SSW 6.0 mph9.7 kmh 30.34 in1027.4 mb 0.00 in0.0 mm 0.00 in0.0 mm 0.00 in0.0 mm
02:00 PM 86.4°F30.2°C 60.6°F15.9°C 42% 3.1 mph S5.0 kmh S 6.9 mph11.1 kmh 30.34 in1027.4 mb 0.00 in0.0 mm 0.00 in0.0 mm 0.00 in0.0 mm
02:05 PM 86.4°F30.2°C 59.9°F15.5°C 41% 3.1 mph SE5.0 kmh SE 3.8 mph6.1 kmh 29.89 in1012.2 mb 0.00 in0.0 mm 0.00 in0.0 mm 0.00 in0.0 mm
02:15 PM 84.9°F29.4°C 58.6°F14.8°C 41% 3.1 mph SW5.0 kmh SW 9.8 mph15.8 kmh 30.35 in1027.8 mb 0.00 in0.0 mm 0.00 in0.0 mm 0.00 in0.0 mm
02:30 PM 84.2°F29.0°C 59.3°F15.2°C 43% 1.6 mph S2.6 kmh S 8.3 mph13.4 kmh 30.35 in1027.8 mb 0.00 in0.0 mm 0.00 in0.0 mm 0.00 in0.0 mm
02:35 PM 84.2°F29.0°C 58.6°F14.8°C 42% 2.2 mph S3.5 kmh S 3.8 mph6.1 kmh 29.90 in1012.5 mb 0.00 in0.0 mm 0.00 in0.0 mm 0.00 in0.0 mm
02:45 PM 83.7°F28.7°C 58.8°F14.9°C 43% 2.2 mph SSW3.5 kmh SSW 6.0 mph9.7 kmh 30.35 in1027.8 mb 0.00 in0.0 mm 0.00 in0.0 mm 0.00 in0.0 mm
03:00 PM 83.3°F28.5°C 59.7°F15.4°C 45% 3.1 mph SW5.0 kmh SW 5.4 mph8.7 kmh 30.35 in1027.8 mb 0.00 in0.0 mm 0.00 in0.0 mm 0.00 in0.0 mm
03:05 PM 83.5°F28.6°C 59.3°F15.2°C 44% 2.2 mph W3.5 kmh W 3.1 mph5.0 kmh 29.90 in1012.5 mb 0.00 in0.0 mm 0.00 in0.0 mm 0.00 in0.0 mm
03:15 PM 81.5°F27.5°C 62.2°F16.8°C 52% 2.2 mph W3.5 kmh W 10.7 mph17.2 kmh 30.36 in1028.1 mb 0.00 in0.0 mm 0.00 in0.0 mm 0.00 in0.0 mm
03:30 PM 80.1°F26.7°C 64.9°F18.3°C 60% 4.5 mph SW7.2 kmh SW 6.0 mph9.7 kmh 30.35 in1027.8 mb 0.00 in0.0 mm 0.00 in0.0 mm 0.00 in0.0 mm
03:35 PM 80.2°F26.8°C 64.6°F18.1°C 59% 1.6 mph W2.6 kmh W 1.6 mph2.6 kmh 29.91 in1012.9 mb 0.00 in0.0 mm 0.00 in0.0 mm 0.00 in0.0 mm
03:45 PM 80.1°F26.7°C 62.4°F16.9°C 55% 3.8 mph W6.1 kmh W 9.8 mph15.8 kmh 30.36 in1028.1 mb 0.00 in0.0 mm 0.00 in0.0 mm 0.00 in0.0 mm
04:00 PM 81.1°F27.3°C 61.3°F16.3°C 51% 10.7 mph W17.2 kmh W 15.9 mph25.6 kmh 30.36 in1028.1 mb 0.00 in0.0 mm 0.00 in0.0 mm 0.00 in0.0 mm
04:05 PM 81.0°F27.2°C 61.7°F16.5°C 52% 6.9 mph W11.1 kmh W 11.4 mph18.3 kmh 29.92 in1013.2 mb 0.00 in0.0 mm 0.00 in0.0 mm 0.00 in0.0 mm
04:15 PM 81.3°F27.4°C 60.9°F16.1°C 50% 3.8 mph WNW6.1 kmh WNW 12.1 mph19.5 kmh 30.36 in1028.1 mb 0.00 in0.0 mm 0.00 in0.0 mm 0.00 in0.0 mm
04:30 PM 81.1°F27.3°C 60.7°F15.9°C 50% 4.5 mph WNW7.2 kmh WNW 9.2 mph14.8 kmh 30.35 in1027.8 mb 0.00 in0.0 mm 0.00 in0.0 mm 0.00 in0.0 mm
04:35 PM 81.3°F27.4°C 60.9°F16.1°C 50% 3.1 mph W5.0 kmh W 3.8 mph6.1 kmh 29.91 in1012.9 mb 0.00 in0.0 mm 0.00 in0.0 mm 0.00 in0.0 mm
04:45 PM 81.1°F27.3°C 60.7°F15.9°C 50% 5.4 mph W8.7 kmh W 9.2 mph14.8 kmh 30.35 in1027.8 mb 0.00 in0.0 mm 0.00 in0.0 mm 0.00 in0.0 mm
05:00 PM 80.8°F27.1°C 61.0°F16.1°C 51% 6.0 mph NW9.7 kmh NW 11.4 mph18.3 kmh 30.35 in1027.8 mb 0.00 in0.0 mm 0.00 in0.0 mm 0.00 in0.0 mm
05:05 PM 81.0°F27.2°C 60.6°F15.9°C 50% 5.4 mph NW8.7 kmh NW 6.9 mph11.1 kmh 29.91 in1012.9 mb 0.00 in0.0 mm 0.00 in0.0 mm 0.00 in0.0 mm
05:15 PM 80.2°F26.8°C 61.0°F16.1°C 52% 6.0 mph W9.7 kmh W 13.0 mph20.9 kmh 30.36 in1028.1 mb 0.00 in0.0 mm 0.00 in0.0 mm 0.00 in0.0 mm
05:30 PM 79.9°F26.6°C 60.7°F15.9°C 52% 6.9 mph WNW11.1 kmh WNW 12.1 mph19.5 kmh 30.35 in1027.8 mb 0.00 in0.0 mm 0.00 in0.0 mm 0.00 in0.0 mm
05:35 PM 79.9°F26.6°C 60.7°F15.9°C 52% 5.4 mph NW8.7 kmh NW 9.2 mph14.8 kmh 29.91 in1012.9 mb 0.00 in0.0 mm 0.00 in0.0 mm 0.00 in0.0 mm
05:45 PM 79.3°F26.3°C 60.2°F15.7°C 52% 6.0 mph WNW9.7 kmh WNW 11.4 mph18.3 kmh 30.34 in1027.4 mb 0.00 in0.0 mm 0.00 in0.0 mm 0.00 in0.0 mm
06:00 PM 79.0°F26.1°C 60.9°F16.1°C 54% 8.3 mph NW13.4 kmh NW 11.4 mph18.3 kmh 30.35 in1027.8 mb 0.00 in0.0 mm 0.00 in0.0 mm 0.00 in0.0 mm
06:05 PM 79.0°F26.1°C 60.4°F15.8°C 53% 4.5 mph NW7.2 kmh NW 6.0 mph9.7 kmh 29.90 in1012.5 mb 0.00 in0.0 mm 0.00 in0.0 mm 0.00 in0.0 mm
06:15 PM 78.3°F25.7°C 60.8°F16.0°C 55% 6.9 mph NW11.1 kmh NW 9.8 mph15.8 kmh 30.35 in1027.8 mb 0.00 in0.0 mm 0.00 in0.0 mm 0.00 in0.0 mm
06:30 PM 77.5°F25.3°C 60.6°F15.9°C 56% 4.5 mph NW7.2 kmh NW 11.4 mph18.3 kmh 30.35 in1027.8 mb 0.00 in0.0 mm 0.00 in0.0 mm 0.00 in0.0 mm
06:35 PM 77.5°F25.3°C 60.6°F15.9°C 56% 4.5 mph N7.2 kmh N 5.4 mph8.7 kmh 29.91 in1012.9 mb 0.00 in0.0 mm 0.00 in0.0 mm 0.00 in0.0 mm
06:45 PM 76.8°F24.9°C 60.9°F16.1°C 58% 3.8 mph NNW6.1 kmh NNW 10.7 mph17.2 kmh 30.36 in1028.1 mb 0.00 in0.0 mm 0.00 in0.0 mm 0.00 in0.0 mm
07:00 PM 76.5°F24.7°C 61.5°F16.4°C 60% 8.3 mph NW13.4 kmh NW 11.4 mph18.3 kmh 30.36 in1028.1 mb 0.00 in0.0 mm 0.00 in0.0 mm 0.00 in0.0 mm
07:05 PM 76.5°F24.7°C 61.5°F16.4°C 60% 8.3 mph NW13.4 kmh NW 11.4 mph18.3 kmh 29.92 in1013.2 mb 0.00 in0.0 mm 0.00 in0.0 mm 0.00 in0.0 mm
07:15 PM 75.6°F24.2°C 61.2°F16.2°C 61% 3.8 mph NW6.1 kmh NW 9.8 mph15.8 kmh 30.35 in1027.8 mb 0.00 in0.0 mm 0.00 in0.0 mm 0.00 in0.0 mm
07:30 PM 75.2°F24.0°C 60.8°F16.0°C 61% 3.8 mph NNW6.1 kmh NNW 9.2 mph14.8 kmh 30.34 in1027.4 mb 0.00 in0.0 mm 0.00 in0.0 mm 0.00 in0.0 mm
07:35 PM 75.2°F24.0°C 60.8°F16.0°C 61% 3.1 mph N5.0 kmh N 4.5 mph7.2 kmh 29.90 in1012.5 mb 0.00 in0.0 mm 0.00 in0.0 mm 0.00 in0.0 mm
07:45 PM 74.7°F23.7°C 60.8°F16.0°C 62% 4.5 mph NW7.2 kmh NW 7.6 mph12.2 kmh 30.34 in1027.4 mb 0.00 in0.0 mm 0.00 in0.0 mm 0.00 in0.0 mm
08:00 PM 73.8°F23.2°C 60.4°F15.8°C 63% 3.8 mph NW6.1 kmh NW 7.6 mph12.2 kmh 30.34 in1027.4 mb 0.00 in0.0 mm 0.00 in0.0 mm 0.00 in0.0 mm
08:05 PM 73.9°F23.3°C 60.5°F15.8°C 63% 4.5 mph NW7.2 kmh NW 6.0 mph9.7 kmh 29.91 in1012.9 mb 0.00 in0.0 mm 0.00 in0.0 mm 0.00 in0.0 mm
08:15 PM 73.4°F23.0°C 60.5°F15.8°C 64% 3.8 mph NW6.1 kmh NW 6.0 mph9.7 kmh 30.35 in1027.8 mb 0.00 in0.0 mm 0.00 in0.0 mm 0.00 in0.0 mm
08:30 PM 73.2°F22.9°C 60.7°F15.9°C 65% 5.4 mph NW8.7 kmh NW 9.2 mph14.8 kmh 30.35 in1027.8 mb 0.00 in0.0 mm 0.00 in0.0 mm 0.00 in0.0 mm
08:35 PM 73.2°F22.9°C 60.7°F15.9°C 65% 2.2 mph SW3.5 kmh SW 3.8 mph6.1 kmh 29.91 in1012.9 mb 0.00 in0.0 mm 0.00 in0.0 mm 0.00 in0.0 mm
08:45 PM 72.9°F22.7°C 60.8°F16.0°C 66% 6.0 mph NW9.7 kmh NW 9.8 mph15.8 kmh 30.35 in1027.8 mb 0.00 in0.0 mm 0.00 in0.0 mm 0.00 in0.0 mm
09:00 PM 72.7°F22.6°C 61.1°F16.2°C 67% 3.1 mph W5.0 kmh W 6.0 mph9.7 kmh 30.36 in1028.1 mb 0.00 in0.0 mm 0.00 in0.0 mm 0.00 in0.0 mm
09:05 PM 72.7°F22.6°C 61.1°F16.2°C 67% 1.6 mph W2.6 kmh W 2.2 mph3.5 kmh 29.91 in1012.9 mb 0.00 in0.0 mm 0.00 in0.0 mm 0.00 in0.0 mm
09:15 PM 72.1°F22.3°C 62.2°F16.8°C 71% 4.5 mph WNW7.2 kmh WNW 7.6 mph12.2 kmh 30.36 in1028.1 mb 0.00 in0.0 mm 0.00 in0.0 mm 0.00 in0.0 mm
09:30 PM 71.8°F22.1°C 62.3°F16.8°C 72% 3.8 mph W6.1 kmh W 10.7 mph17.2 kmh 30.36 in1028.1 mb 0.00 in0.0 mm 0.00 in0.0 mm 0.00 in0.0 mm
09:35 PM 71.8°F22.1°C 61.9°F16.6°C 71% 7.6 mph W12.2 kmh W 9.2 mph14.8 kmh 29.92 in1013.2 mb 0.00 in0.0 mm 0.00 in0.0 mm 0.00 in0.0 mm
09:45 PM 71.4°F21.9°C 61.9°F16.6°C 72% 3.8 mph W6.1 kmh W 9.8 mph15.8 kmh 30.36 in1028.1 mb 0.00 in0.0 mm 0.00 in0.0 mm 0.00 in0.0 mm
10:00 PM 70.7°F21.5°C 61.2°F16.2°C 72% 5.4 mph NW8.7 kmh NW 7.6 mph12.2 kmh 30.35 in1027.8 mb 0.00 in0.0 mm 0.00 in0.0 mm 0.00 in0.0 mm
10:05 PM 70.9°F21.6°C 61.4°F16.3°C 72% 5.4 mph NW8.7 kmh NW 6.9 mph11.1 kmh 29.91 in1012.9 mb 0.00 in0.0 mm 0.00 in0.0 mm 0.00 in0.0 mm
10:15 PM 70.2°F21.2°C 61.5°F16.4°C 74% 2.2 mph NW3.5 kmh NW 5.4 mph8.7 kmh 30.36 in1028.1 mb 0.00 in0.0 mm 0.00 in0.0 mm 0.00 in0.0 mm
10:30 PM 69.6°F20.9°C 61.3°F16.3°C 75% 1.6 mph NW2.6 kmh NW 3.1 mph5.0 kmh 30.36 in1028.1 mb 0.00 in0.0 mm 0.00 in0.0 mm 0.00 in0.0 mm
10:35 PM 69.6°F20.9°C 61.3°F16.3°C 75% 1.6 mph NW2.6 kmh NW 3.1 mph5.0 kmh 29.91 in1012.9 mb 0.00 in0.0 mm 0.00 in0.0 mm 0.00 in0.0 mm
10:45 PM 68.7°F20.4°C 61.2°F16.2°C 77% 0.7 mph W1.1 kmh W 2.2 mph3.5 kmh 30.35 in1027.8 mb 0.00 in0.0 mm 0.00 in0.0 mm 0.00 in0.0 mm
11:00 PM 68.4°F20.2°C 61.6°F16.4°C 79% 0.7 mph W1.1 kmh W 2.2 mph3.5 kmh 30.36 in1028.1 mb 0.00 in0.0 mm 0.00 in0.0 mm 0.00 in0.0 mm
11:05 PM 68.4°F20.2°C 61.6°F16.4°C 79% 1.6 mph W2.6 kmh W 2.2 mph3.5 kmh 29.91 in1012.9 mb 0.00 in0.0 mm 0.00 in0.0 mm 0.00 in0.0 mm
11:15 PM 68.0°F20.0°C 61.6°F16.4°C 80% 1.6 mph SW2.6 kmh SW 3.8 mph6.1 kmh 30.36 in1028.1 mb 0.00 in0.0 mm 0.00 in0.0 mm 0.00 in0.0 mm
11:30 PM 67.5°F19.7°C 61.4°F16.3°C 81% 2.2 mph W3.5 kmh W 6.0 mph9.7 kmh 30.36 in1028.1 mb 0.00 in0.0 mm 0.00 in0.0 mm 0.00 in0.0 mm
11:35 PM 67.6°F19.8°C 61.6°F16.4°C 81% 4.5 mph NW7.2 kmh NW 6.0 mph9.7 kmh 29.92 in1013.2 mb 0.00 in0.0 mm 0.00 in0.0 mm 0.00 in0.0 mm
11:45 PM 67.3°F19.6°C 61.6°F16.4°C 82% 2.2 mph W3.5 kmh W 4.5 mph7.2 kmh 30.36 in1028.1 mb 0.00 in0.0 mm 0.00 in0.0 mm 0.00 in0.0 mm